NCAR-RAP Real-Time Weather Data

Output produced by METARs form (01 December 2020  17:08 UTC)
found at http://weather.rap.ucar.edu/surface/
 
KTUP 011653Z 00000KT 10SM CLR 06/M07 A3026 RMK AO2 SLP247 T00611067 $
KTUP 011553Z VRB04KT 10SM CLR 04/M06 A3028 RMK AO2 SLP254 T00441056 $
KTUP 011453Z VRB03KT 10SM CLR 02/M05 A3027 RMK AO2 SLP251 T00171050 $
KTUP 011353Z 24004KT 10SM CLR M01/M06 A3025 RMK AO2 SLP245 T10061056 $
KTUP 011253Z 27003KT 10SM CLR M03/M06 A3023 RMK AO2 SLP238 T10281061 $
KTUP 011153Z 26003KT 10SM CLR M02/M06 A3022 RMK AO2 SLP234 T10221061 11011 21022 53015 $
KTUP 011053Z AUTO 26003KT 10SM CLR M02/M06 A3019 RMK AO2 SLP225 T10221061 $
KTUP 010953Z AUTO 26004KT 10SM CLR M02/M06 A3018 RMK AO2 SLP221 T10221061 $
KTUP 010853Z AUTO 27003KT 10SM CLR M02/M06 A3017 RMK AO2 SLP220 T10171061 $
KTUP 010753Z AUTO 26004KT 10SM CLR M02/M06 A3016 RMK AO2 SLP216 T10171061 $
KTUP 010653Z AUTO 26004KT 10SM CLR M02/M06 A3015 RMK AO2 SLP212 T10171061 $